Aktuální počasí v Česku a ve světě - METAR

Seznam meteostanic umístěných nejčasteji na letišti v ČR a ve světě

Vyhledat místa podle abecedy:
A B C D E F G H I J K L M N O P Q R S T U V W X Y Z

Filtrovat:

ID stanice:
a/nebo
Název místa (fulltext):
 
Místo (ID)Naposledy načteno 
Iasi (LRIA) 01.12.2020 05:00 UTC Zobrazit METAR
LRIA 010500Z 33008KT 3000 BR OVC002 M04/M04 Q1027
Ibiza (LEIB) 01.12.2020 06:00 UTC Zobrazit METAR
LEIB 010600Z 02006KT 9999 BKN039 13/13 Q1020 NOSIG
Innsbruck (LOWI) 01.12.2020 05:50 UTC Zobrazit METAR
LOWI 010550Z VRB01KT 9999 SCT100 M05/M06 Q1017 NOSIG
Iraklion (LGIR) 01.12.2020 05:50 UTC Zobrazit METAR
LGIR 010550Z 00000KT 9999 FEW020 BKN030 15/13 Q1015 NOSIG RMK SCT180
Isafjordur (BIIS) 30.11.2020 17:00 UTC Zobrazit METAR
BIIS 301700Z 21005KT 9999 OVC035 M01/M04 Q1012 R88/890130
Isla de Pascua (SCIP) 01.12.2020 06:00 UTC Zobrazit METAR
SCIP 010600Z 12004KT 9999 FEW020 17/15 Q1022 NOSIG
Islamabad (OPRN) 28.12.2019 11:00 UTC Zobrazit METAR
OPRN 281100Z 05004KT 1400 BR SCT100 11/08 Q1016 BECMG 1500 BR
Istanbul (LTBA) 01.12.2020 05:50 UTC Zobrazit METAR
LTBA 010550Z 36018KT 9999 SCT013 BKN035 07/04 Q1021 NOSIG
Ivano-Frankivs'k (UKLI) Zatím nenačteno  
Reklama


Další české internetové stránky (nejen) o počasí najdete v katalogu TOPlist - weby o počasí nebo vyhledejte na internetu, co jste tu na 🌞 Slunečnu ⛅ zatím nenašli:
⭐ Přidat Slunečno.cz do oblíbených | 🏠 Nastavit Slunečno.cz jako HOMEPAGE

⬆️ Posunout stránku nahoru ⬆️
Reklama